Time;durP1;ratioP1;P1;durP2;ratioP2;P2;SDS_P1;SDS_P2;PMS_P1;PMS_P2;Temp;Humidity;BMP_temperature;BMP_pressure;BME280_temperature;BME280_humidity;BME280_pressure;Samples;Min_cycle;Max_cycle;Signal;HPM_P1;HPM_P2
2022/07/09 00:01:35;;;;;;;22.27;19.88;;;;;;;16.80;83.41;102861.78;10479477;28;20047;-75
2022/07/09 00:06:36;;;;;;;27.98;20.00;;;;;;;16.76;83.49;102865.97;10497033;28;20055;-74
2022/07/09 00:11:36;;;;;;;23.25;20.55;;;;;;;16.76;84.85;102852.28;10502418;28;20072;-74
2022/07/09 00:16:37;;;;;;;31.92;23.70;;;;;;;16.74;86.27;102854.31;10486277;28;20444;-74
2022/07/09 00:21:37;;;;;;;37.22;24.35;;;;;;;16.71;85.06;102849.22;10504205;28;20032;-74
2022/07/09 00:26:38;;;;;;;32.50;22.15;;;;;;;16.66;85.16;102847.06;10505146;28;20044;-74
2022/07/09 00:31:38;;;;;;;39.55;21.58;;;;;;;16.67;85.87;102846.03;10503126;28;20028;-74
2022/07/09 00:36:39;;;;;;;38.85;23.35;;;;;;;16.69;85.78;102843.13;10503657;28;20135;-74
2022/07/09 00:41:39;;;;;;;34.38;22.08;;;;;;;16.67;85.54;102839.72;10503533;28;20075;-74
2022/07/09 00:46:40;;;;;;;31.20;20.27;;;;;;;16.64;86.96;102845.56;10503087;28;20476;-74
2022/07/09 00:51:41;;;;;;;28.38;17.10;;;;;;;16.65;87.06;102844.53;10486208;28;20035;-74
2022/07/09 00:56:41;;;;;;;22.27;16.92;;;;;;;16.62;85.93;102842.16;10484914;28;20128;-74
2022/07/09 01:01:42;;;;;;;22.77;15.13;;;;;;;16.56;86.53;102835.59;10484795;28;20032;-74
2022/07/09 01:06:42;;;;;;;19.50;12.98;;;;;;;16.55;87.03;102833.03;10503262;28;20044;-74
2022/07/09 01:11:44;;;;;;;16.27;13.23;;;;;;;16.52;87.01;102829.63;10501543;28;20488;-74
2022/07/09 01:16:44;;;;;;;18.13;12.43;;;;;;;16.46;87.01;102824.06;10484005;28;20075;-74
2022/07/09 01:21:45;;;;;;;13.95;11.82;;;;;;;16.39;86.11;102823.97;10500931;28;20060;-68
2022/07/09 01:26:45;;;;;;;15.65;11.75;;;;;;;16.38;87.51;102822.28;10484223;28;20039;-68
2022/07/09 01:31:45;;;;;;;16.67;11.60;;;;;;;16.58;88.54;102816.25;10503559;28;20479;-68
2022/07/09 01:36:46;;;;;;;17.70;11.40;;;;;;;16.77;87.38;102810.19;10500978;28;20108;-69
2022/07/09 01:41:46;;;;;;;13.00;8.45;;;;;;;16.88;87.87;102806.97;10499590;28;20036;-68
2022/07/09 01:46:47;;;;;;;14.40;8.85;;;;;;;16.86;87.76;102808.19;10499915;28;20077;-68
2022/07/09 01:51:47;;;;;;;14.75;8.23;;;;;;;16.74;88.31;102794.97;10483317;28;20032;-68
2022/07/09 01:56:47;;;;;;;8.57;7.03;;;;;;;16.59;87.48;102796.91;10500574;28;20068;-68
2022/07/09 02:01:48;;;;;;;8.48;6.72;;;;;;;16.53;87.38;102794.94;10481780;28;20361;-68
2022/07/09 02:06:48;;;;;;;9.75;6.65;;;;;;;16.42;87.68;102781.75;10498773;28;20048;-68
2022/07/09 02:11:49;;;;;;;9.65;6.70;;;;;;;16.36;88.04;102787.97;10499254;28;20033;-69
2022/07/09 02:16:49;;;;;;;8.82;6.57;;;;;;;16.33;87.96;102774.69;10482620;28;20452;-68
2022/07/09 02:21:50;;;;;;;7.45;6.70;;;;;;;16.32;88.22;102779.31;10498583;28;20480;-69
2022/07/09 02:26:50;;;;;;;15.60;7.38;;;;;;;16.32;88.08;102775.72;10485872;28;20044;-69
2022/07/09 02:31:51;;;;;;;6.40;5.50;;;;;;;16.35;88.73;102778.91;10486464;28;20027;-68
2022/07/09 02:36:51;;;;;;;13.27;5.82;;;;;;;16.47;89.69;102771.09;10501149;28;20052;-68
2022/07/09 02:41:52;;;;;;;8.25;6.50;;;;;;;16.68;89.57;102765.66;10498195;28;20082;-68
2022/07/09 02:46:52;;;;;;;11.73;9.23;;;;;;;16.85;88.82;102769.06;10485403;28;20029;-68
2022/07/09 02:51:54;;;;;;;11.20;7.30;;;;;;;16.98;89.01;102772.97;10497990;28;20438;-68
2022/07/09 02:56:55;;;;;;;10.60;6.20;;;;;;;17.10;89.02;102766.78;10498807;28;20047;-68
2022/07/09 03:01:55;;;;;;;12.93;5.40;;;;;;;17.23;89.71;102767.94;10498584;28;20036;-68
2022/07/09 03:06:55;;;;;;;6.70;6.15;;;;;;;17.36;89.29;102757.13;10498715;28;20048;-68
2022/07/09 03:11:56;;;;;;;5.97;5.47;;;;;;;17.42;89.22;102753.56;10497318;28;20037;-69
2022/07/09 03:16:56;;;;;;;6.18;5.57;;;;;;;17.47;88.71;102750.25;10497768;28;20064;-68
2022/07/09 03:21:57;;;;;;;8.60;6.32;;;;;;;17.49;88.72;102738.06;10499792;28;20045;-68
2022/07/09 03:26:57;;;;;;;12.23;5.13;;;;;;;17.57;90.39;102737.91;10501236;28;20091;-69
2022/07/09 03:31:58;;;;;;;6.55;6.05;;;;;;;17.64;90.35;102747.03;10480247;28;20028;-68
2022/07/09 03:36:59;;;;;;;7.95;5.35;;;;;;;17.68;89.26;102742.00;10496815;28;20032;-68
2022/07/09 03:41:59;;;;;;;6.78;6.07;;;;;;;17.65;88.97;102740.50;10497329;28;20582;-68
2022/07/09 03:47:00;;;;;;;8.02;5.78;;;;;;;17.55;90.04;102741.88;10504753;28;20040;-67
2022/07/09 03:52:00;;;;;;;10.65;6.57;;;;;;;17.50;90.49;102744.38;10505395;28;20052;-68
2022/07/09 03:57:00;;;;;;;6.30;5.70;;;;;;;17.54;90.12;102742.94;10486384;28;20434;-68
2022/07/09 04:02:01;;;;;;;12.15;6.95;;;;;;;17.64;90.26;102746.16;10502878;28;20055;-67
2022/07/09 04:07:01;;;;;;;8.15;7.38;;;;;;;17.72;90.13;102737.81;10504863;28;20064;-68
2022/07/09 04:12:02;;;;;;;10.95;6.82;;;;;;;17.77;89.62;102737.22;10504811;28;20056;-68
2022/07/09 04:17:02;;;;;;;7.28;6.50;;;;;;;17.82;89.33;102737.47;10486787;28;20033;-68
2022/07/09 04:22:03;;;;;;;9.88;5.82;;;;;;;17.74;89.05;102740.31;10486126;28;20143;-69
2022/07/09 04:27:04;;;;;;;6.75;5.75;;;;;;;17.64;88.86;102747.03;10503786;28;20408;-68
2022/07/09 04:32:04;;;;;;;7.90;6.38;;;;;;;17.54;89.41;102745.66;10503348;28;20391;-69
2022/07/09 04:37:05;;;;;;;9.70;6.90;;;;;;;17.55;90.54;102747.34;10485123;28;20032;-68
2022/07/09 04:42:05;;;;;;;9.85;7.60;;;;;;;17.68;90.15;102763.91;10501898;28;20039;-68
2022/07/09 04:47:06;;;;;;;16.63;10.48;;;;;;;17.84;90.86;102749.94;10501603;28;20052;-68
2022/07/09 04:52:07;;;;;;;16.00;10.60;;;;;;;18.00;90.25;102737.81;10506853;28;20071;-68
2022/07/09 04:57:07;;;;;;;12.68;10.93;;;;;;;18.22;90.20;102733.06;10506342;28;20119;-68
2022/07/09 05:02:07;;;;;;;14.70;13.20;;;;;;;18.32;90.21;102725.31;10501874;28;20036;-68
2022/07/09 05:07:08;;;;;;;15.73;12.07;;;;;;;18.57;89.87;102719.28;10501872;28;20132;-68
2022/07/09 05:12:10;;;;;;;23.70;12.57;;;;;;;18.81;89.92;102713.22;10484429;28;20208;-68
2022/07/09 05:17:10;;;;;;;12.93;10.32;;;;;;;18.93;90.47;102707.13;10501655;28;20032;-68
2022/07/09 05:22:11;;;;;;;11.63;9.95;;;;;;;18.83;90.20;102707.53;10501863;28;20028;-68
2022/07/09 05:27:11;;;;;;;12.30;9.18;;;;;;;18.86;89.62;102718.13;10484851;28;20032;-68
2022/07/09 05:32:11;;;;;;;15.23;10.75;;;;;;;19.33;89.95;102712.63;10483128;28;20033;-69
2022/07/09 05:37:12;;;;;;;20.45;12.60;;;;;;;19.78;90.50;102710.06;10501371;28;20123;-70
2022/07/09 05:42:12;;;;;;;24.45;14.20;;;;;;;19.88;89.56;102718.75;10482647;28;20037;-68
2022/07/09 05:47:15;;;;;;;14.18;12.45;;;;;;;19.86;88.91;102718.94;10484216;28;20040;-69
2022/07/09 05:52:15;;;;;;;17.40;12.32;;;;;;;19.73;89.27;102730.81;10499566;28;20094;-68
2022/07/09 05:57:15;;;;;;;10.15;8.70;;;;;;;19.88;89.59;102716.81;10500423;28;20028;-67
2022/07/09 06:02:16;;;;;;;12.95;6.63;;;;;;;20.06;89.77;102732.63;10498568;28;20036;-68
2022/07/09 06:07:16;;;;;;;7.28;5.47;;;;;;;21.38;89.17;102721.97;10499024;28;20091;-68
2022/07/09 06:12:17;;;;;;;4.07;3.70;;;;;;;20.86;88.85;102740.53;10498788;28;20415;-68
2022/07/09 06:17:17;;;;;;;3.78;3.47;;;;;;;20.28;88.39;102729.59;10498917;28;20041;-67
2022/07/09 06:22:17;;;;;;;2.72;2.40;;;;;;;20.85;86.69;102734.19;10481041;28;20058;-68
2022/07/09 06:27:18;;;;;;;3.03;1.80;;;;;;;21.45;84.43;102739.28;10498751;28;20391;-69
2022/07/09 06:32:18;;;;;;;1.17;1.15;;;;;;;22.95;81.54;102733.28;10480743;28;20032;-68
2022/07/09 06:37:18;;;;;;;2.13;1.92;;;;;;;23.29;81.79;102735.50;10416000;28;20048;-70
2022/07/09 06:42:19;;;;;;;2.38;1.23;;;;;;;21.88;77.97;102743.94;10480295;28;20032;-69
2022/07/09 06:47:19;;;;;;;18.10;1.88;;;;;;;21.39;80.06;102762.22;10498234;28;20033;-69
2022/07/09 06:52:20;;;;;;;1.20;1.02;;;;;;;21.73;80.43;102760.88;10498163;28;20464;-69
2022/07/09 06:57:20;;;;;;;2.17;1.70;;;;;;;22.63;78.78;102745.63;10499139;28;20056;-69
2022/07/09 07:02:20;;;;;;;3.25;1.77;;;;;;;21.95;78.23;102772.31;10481086;28;20345;-69
2022/07/09 07:07:21;;;;;;;1.50;1.50;;;;;;;22.97;76.94;102766.19;10484176;28;20064;-69
2022/07/09 07:12:21;;;;;;;10.00;2.08;;;;;;;24.10;74.00;102769.81;10497709;28;20033;-68
2022/07/09 07:17:22;;;;;;;2.85;1.67;;;;;;;23.77;74.02;102771.28;10503135;28;20088;-69
2022/07/09 07:22:22;;;;;;;1.10;1.00;;;;;;;22.60;74.78;102784.75;10509493;28;20040;-70
2022/07/09 07:27:23;;;;;;;6.13;2.22;;;;;;;22.03;76.71;102788.56;10508352;28;20029;-69
2022/07/09 07:32:23;;;;;;;1.50;1.20;;;;;;;21.58;77.81;102793.47;10506360;28;20385;-68
2022/07/09 07:37:23;;;;;;;4.07;1.75;;;;;;;21.25;78.32;102791.78;10505365;28;20033;-68
2022/07/09 07:42:24;;;;;;;4.07;1.63;;;;;;;21.17;78.23;102777.41;10504694;28;20108;-68
2022/07/09 07:47:24;;;;;;;2.92;2.03;;;;;;;21.40;77.89;102791.47;10504919;28;20044;-68
2022/07/09 07:52:24;;;;;;;3.20;1.70;;;;;;;21.35;77.82;102788.56;10504637;28;20523;-69
2022/07/09 07:57:25;;;;;;;2.13;1.83;;;;;;;21.40;77.39;102788.72;10487213;28;20127;-69
2022/07/09 08:02:25;;;;;;;3.17;1.42;;;;;;;21.57;76.68;102789.84;10504646;28;20434;-68
2022/07/09 08:07:26;;;;;;;4.93;2.03;;;;;;;21.60;75.71;102772.00;10505379;28;20088;-67
2022/07/09 08:12:27;;;;;;;3.90;2.00;;;;;;;22.27;74.80;102780.47;10504141;28;20108;-68
2022/07/09 08:17:28;;;;;;;1.75;1.63;;;;;;;22.46;72.31;102773.88;10504912;28;20036;-68
2022/07/09 08:22:28;;;;;;;2.58;1.98;;;;;;;22.90;72.39;102774.53;10486838;28;20047;-68
2022/07/09 08:27:28;;;;;;;3.47;1.67;;;;;;;24.17;69.76;102764.97;10486924;28;20037;-68
2022/07/09 08:32:29;;;;;;;2.53;1.55;;;;;;;24.82;69.50;102775.75;10486374;28;20737;-69
2022/07/09 08:37:29;;;;;;;1.25;1.17;;;;;;;24.48;70.19;102780.34;10485545;28;20028;-68
2022/07/09 08:42:31;;;;;;;3.47;1.67;;;;;;;24.08;71.10;102774.72;10503236;28;20032;-68
2022/07/09 08:47:31;;;;;;;4.78;1.30;;;;;;;24.82;69.20;102777.66;10502332;28;20135;-68
2022/07/09 08:52:32;;;;;;;5.68;1.63;;;;;;;26.08;65.52;102763.44;10484109;28;20028;-69
2022/07/09 08:57:33;;;;;;;2.63;1.77;;;;;;;27.50;63.53;102759.69;10467126;28;20051;-68
2022/07/09 09:02:37;;;;;;;3.17;1.38;;;;;;;26.83;61.53;102766.56;10467410;28;20047;-69
2022/07/09 09:07:37;;;;;;;1.13;1.10;;;;;;;26.44;62.04;102758.31;10500215;28;20057;-68
2022/07/09 09:12:38;;;;;;;2.10;1.38;;;;;;;25.83;62.97;102763.06;10500369;28;20028;-66
2022/07/09 09:17:47;;;;;;;2.28;1.88;;;;;;;25.70;62.61;102753.16;10483891;28;20036;-65
2022/07/09 09:22:50;;;;;;;1.27;1.10;;;;;;;26.13;60.62;102768.19;10501932;28;20044;-66
2022/07/09 09:27:57;;;;;;;0.90;0.90;;;;;;;26.27;56.97;102765.91;10501063;28;20065;-66
2022/07/09 09:33:01;;;;;;;0.80;0.80;;;;;;;25.80;57.79;102788.53;10483137;28;20040;-67
2022/07/09 09:38:02;;;;;;;2.20;1.50;;;;;;;26.48;50.69;102784.50;10501021;28;20063;-65
2022/07/09 09:43:02;;;;;;;1.70;1.45;;;;;;;27.35;53.68;102777.13;10467378;28;20064;-66
2022/07/09 09:48:03;;;;;;;0.98;0.98;;;;;;;27.17;49.94;102789.47;10504029;28;20067;-65
2022/07/09 09:53:03;;;;;;;1.13;1.13;;;;;;;27.34;52.05;102789.34;10484480;28;20029;-66
2022/07/09 09:58:05;;;;;;;0.90;0.90;;;;;;;26.80;53.16;102783.78;10465849;28;20028;-65
2022/07/09 10:03:06;;;;;;;6.55;1.48;;;;;;;26.96;50.38;102785.59;10466432;28;20028;-66
2022/07/09 10:08:06;;;;;;;1.27;1.17;;;;;;;27.31;50.40;102778.72;10499591;28;20083;-66
2022/07/09 10:13:07;;;;;;;1.02;1.02;;;;;;;28.24;50.72;102770.75;10498138;28;20039;-65
2022/07/09 10:18:11;;;;;;;0.82;0.82;;;;;;;28.95;46.53;102781.31;10498782;28;20044;-65
2022/07/09 10:23:24;;;;;;;1.95;1.35;;;;;;;27.85;47.29;102794.47;10481061;28;20408;-65
2022/07/09 10:28:25;;;;;;;3.10;1.60;;;;;;;25.92;51.43;102804.03;10481451;28;20029;-65
2022/07/09 10:33:33;;;;;;;1.02;0.73;;;;;;;26.80;50.16;102806.88;10498909;28;20052;-66
2022/07/09 10:38:34;;;;;;;1.55;1.40;;;;;;;27.32;47.93;102805.47;10497958;28;20166;-65
2022/07/09 10:43:44;;;;;;;2.47;1.08;;;;;;;28.22;49.29;102792.47;10479450;28;20453;-68
2022/07/09 10:48:45;;;;;;;2.20;1.63;;;;;;;26.54;51.25;102805.72;10480535;28;20105;-68
2022/07/09 10:53:46;;;;;;;3.97;1.67;;;;;;;25.03;55.51;102807.47;10497281;28;20055;-67
2022/07/09 10:58:47;;;;;;;4.60;1.70;;;;;;;25.03;55.98;102803.84;10497947;28;20067;-68
2022/07/09 11:03:50;;;;;;;1.77;1.67;;;;;;;25.17;54.13;102809.94;10480297;28;20042;-67
2022/07/09 11:08:51;;;;;;;3.10;0.95;;;;;;;24.82;53.59;102813.69;10462754;28;20496;-67
2022/07/09 11:13:52;;;;;;;2.75;1.40;;;;;;;26.00;52.36;102818.56;10496533;28;20118;-68
2022/07/09 11:18:53;;;;;;;5.95;1.67;;;;;;;25.75;53.00;102822.63;10482294;28;20107;-68
2022/07/09 11:23:54;;;;;;;3.70;1.70;;;;;;;26.05;50.98;102833.34;10502608;28;20045;-68
2022/07/09 11:28:54;;;;;;;9.27;1.92;;;;;;;25.87;51.77;102823.34;10469982;28;20040;-67
2022/07/09 11:34:13;;;;;;;5.65;1.90;;;;;;;26.25;50.26;102820.84;10481508;28;20029;-68
2022/07/09 11:39:23;;;;;;;4.18;1.20;;;;;;;27.84;49.52;102821.50;10483466;28;20031;-68
2022/07/09 11:44:33;;;;;;;2.50;1.55;;;;;;;26.80;46.55;102831.88;10497232;28;20033;-68
2022/07/09 11:49:35;;;;;;;1.65;1.20;;;;;;;26.09;49.37;102814.25;10479288;28;20383;-68
2022/07/09 11:54:35;;;;;;;2.78;1.88;;;;;;;25.50;50.81;102821.09;10479202;28;20036;-68
2022/07/09 11:59:37;;;;;;;3.97;2.53;;;;;;;26.12;50.50;102805.41;10496253;28;20441;-68
2022/07/09 12:04:38;;;;;;;2.95;1.92;;;;;;;26.08;51.17;102805.09;10481657;28;20529;-68
2022/07/09 12:09:38;;;;;;;2.17;1.83;;;;;;;25.75;52.41;102812.34;10487695;28;20098;-68
2022/07/09 12:14:39;;;;;;;6.50;3.00;;;;;;;26.25;52.11;102804.19;10506282;28;20094;-68
2022/07/09 12:19:39;;;;;;;2.38;2.20;;;;;;;25.86;53.02;102801.44;10488997;28;20024;-67
2022/07/09 12:24:39;;;;;;;6.63;2.47;;;;;;;25.14;52.73;102796.59;10486081;28;20040;-67
2022/07/09 12:29:41;;;;;;;1.80;1.70;;;;;;;25.77;53.47;102803.75;10485451;28;20277;-68
2022/07/09 12:34:41;;;;;;;7.05;2.40;;;;;;;25.02;53.30;102794.69;10485537;28;20434;-69
2022/07/09 12:39:41;;;;;;;7.82;2.35;;;;;;;25.11;53.23;102794.28;10503193;28;20033;-70
2022/07/09 12:44:42;;;;;;;2.83;2.08;;;;;;;25.26;54.22;102798.19;10485185;28;20036;-67
2022/07/09 12:49:42;;;;;;;4.40;2.63;;;;;;;25.21;53.45;102792.59;10485207;28;20068;-68
2022/07/09 12:54:43;;;;;;;4.93;2.22;;;;;;;26.74;52.17;102788.47;10484441;28;20043;-66
2022/07/09 12:59:43;;;;;;;8.20;3.22;;;;;;;26.89;52.26;102796.09;10485485;28;20067;-68
2022/07/09 13:04:43;;;;;;;14.63;2.40;;;;;;;26.08;52.31;102793.97;10467986;28;20039;-68
2022/07/09 13:09:44;;;;;;;13.10;2.65;;;;;;;25.58;52.54;102794.00;10503146;28;20125;-67
2022/07/09 13:14:44;;;;;;;3.30;2.30;;;;;;;25.56;52.95;102790.63;10467145;28;20040;-67
2022/07/09 13:19:45;;;;;;;4.13;2.47;;;;;;;26.71;50.44;102786.19;10501708;28;20071;-67
2022/07/09 13:24:45;;;;;;;1.40;1.40;;;;;;;26.60;49.28;102799.13;10484357;28;20139;-68
2022/07/09 13:29:45;;;;;;;4.38;1.92;;;;;;;26.47;48.69;102791.16;10501099;28;20476;-67
2022/07/09 13:34:46;;;;;;;4.28;2.45;;;;;;;27.06;49.49;102793.25;10466635;28;20032;-67
2022/07/09 13:39:46;;;;;;;7.43;2.17;;;;;;;26.67;49.33;102793.34;10483349;28;20452;-68
2022/07/09 13:44:47;;;;;;;6.93;1.50;;;;;;;26.34;51.50;102797.09;10499818;28;20036;-67
2022/07/09 13:49:47;;;;;;;2.22;2.03;;;;;;;26.26;51.58;102789.19;10498419;28;20039;-68
2022/07/09 13:54:48;;;;;;;5.63;2.55;;;;;;;25.81;52.38;102796.63;10499986;28;20053;-68
2022/07/09 13:59:48;;;;;;;5.53;2.38;;;;;;;25.39;52.16;102799.81;10465257;28;20033;-67
2022/07/09 14:04:49;;;;;;;2.88;2.63;;;;;;;25.04;52.83;102794.44;10499059;28;20099;-67
2022/07/09 14:09:49;;;;;;;2.95;1.83;;;;;;;24.98;53.41;102792.66;10481298;28;20133;-67
2022/07/09 14:14:50;;;;;;;4.47;1.92;;;;;;;24.68;51.84;102802.06;10498384;28;20400;-67
2022/07/09 14:19:51;;;;;;;5.07;1.80;;;;;;;24.40;52.83;102813.06;10499087;28;20075;-67
2022/07/09 14:24:52;;;;;;;7.47;2.58;;;;;;;24.62;51.81;102802.22;10481055;28;20047;-67
2022/07/09 14:29:52;;;;;;;1.45;1.40;;;;;;;24.77;51.81;102800.59;10498762;28;20110;-67
2022/07/09 14:34:52;;;;;;;3.80;1.25;;;;;;;24.93;50.62;102809.22;10481885;28;20032;-68
2022/07/09 14:39:53;;;;;;;1.35;1.25;;;;;;;24.91;51.25;102816.91;10500602;28;20434;-68
2022/07/09 14:44:53;;;;;;;1.55;1.45;;;;;;;24.57;48.69;102811.28;10502108;28;20036;-68
2022/07/09 14:49:54;;;;;;;9.48;1.80;;;;;;;24.35;49.42;102822.97;10498505;28;20464;-68
2022/07/09 14:54:54;;;;;;;2.53;1.83;;;;;;;24.04;48.61;102823.34;10480804;28;20040;-67
2022/07/09 14:59:55;;;;;;;5.45;2.10;;;;;;;24.07;48.89;102825.66;10498558;28;20432;-67
2022/07/09 15:04:56;;;;;;;5.15;1.80;;;;;;;23.99;48.60;102826.00;10498344;28;20128;-67
2022/07/09 15:09:57;;;;;;;5.10;1.55;;;;;;;23.85;47.43;102828.16;10479331;28;20052;-67
2022/07/09 15:14:58;;;;;;;8.57;1.80;;;;;;;23.46;47.68;102826.91;10497052;28;20450;-67
2022/07/09 15:19:58;;;;;;;4.45;1.38;;;;;;;23.27;49.36;102826.97;10497026;28;20427;-67
2022/07/09 15:25:04;;;;;;;4.15;1.63;;;;;;;22.89;49.01;102833.63;10497159;28;20102;-67
2022/07/09 15:30:04;;;;;;;4.23;1.43;;;;;;;22.82;50.30;102832.88;10498611;28;20043;-67
2022/07/09 15:35:05;;;;;;;1.60;1.17;;;;;;;22.51;49.57;102829.22;10495905;28;20029;-67
2022/07/09 15:40:06;;;;;;;1.65;1.35;;;;;;;22.33;50.52;102851.31;10483928;28;20032;-67
2022/07/09 15:45:09;;;;;;;3.38;1.60;;;;;;;22.04;51.84;102826.09;10506725;28;20059;-67
2022/07/09 15:50:09;;;;;;;3.22;2.10;;;;;;;22.19;52.11;102844.25;10487020;28;20039;-67
2022/07/09 15:55:10;;;;;;;2.28;2.05;;;;;;;22.02;51.69;102833.78;10504784;28;20511;-67
2022/07/09 16:00:12;;;;;;;2.63;1.63;;;;;;;21.97;52.53;102836.38;10486658;28;20025;-66
2022/07/09 16:05:13;;;;;;;3.95;1.58;;;;;;;21.75;51.76;102844.19;10504522;28;20111;-67
2022/07/09 16:10:13;;;;;;;1.52;1.42;;;;;;;21.41;52.88;102840.03;10504254;28;20127;-67
2022/07/09 16:15:13;;;;;;;2.13;1.65;;;;;;;21.43;53.41;102834.28;10486077;28;20131;-67
2022/07/09 16:20:14;;;;;;;2.38;1.65;;;;;;;21.31;53.00;102825.84;10503522;28;20090;-67
2022/07/09 16:25:14;;;;;;;3.05;1.63;;;;;;;21.05;53.57;102835.97;10503959;28;20064;-66
2022/07/09 16:30:15;;;;;;;2.80;2.15;;;;;;;20.74;53.40;102838.66;10503331;28;20094;-67
2022/07/09 16:35:15;;;;;;;1.65;1.55;;;;;;;20.24;54.05;102825.47;10503641;28;20045;-66
2022/07/09 16:40:16;;;;;;;4.43;2.15;;;;;;;20.15;54.14;102832.25;10468632;28;20354;-67
2022/07/09 16:45:16;;;;;;;5.78;2.35;;;;;;;19.90;54.75;102840.31;10486541;28;20032;-68
2022/07/09 16:50:17;;;;;;;1.92;1.55;;;;;;;19.58;56.47;102826.34;10502300;28;20033;-67
2022/07/09 16:55:17;;;;;;;3.03;1.73;;;;;;;19.34;56.86;102835.22;10484087;28;20399;-67
2022/07/09 17:00:18;;;;;;;3.40;2.00;;;;;;;19.08;58.37;102830.50;10505701;28;20036;-66
2022/07/09 17:05:18;;;;;;;1.58;1.48;;;;;;;19.32;59.16;102824.41;10490186;28;20070;-67
2022/07/09 17:10:19;;;;;;;3.30;2.17;;;;;;;19.29;58.92;102833.91;10509305;28;20087;-68
2022/07/09 17:15:19;;;;;;;1.83;1.67;;;;;;;19.29;59.45;102822.94;10485657;28;20040;-67
2022/07/09 17:20:20;;;;;;;4.07;1.77;;;;;;;19.28;59.40;102821.25;10501525;28;20033;-67
2022/07/09 17:25:21;;;;;;;4.05;1.80;;;;;;;18.87;60.19;102823.25;10484035;28;20475;-67
2022/07/09 17:30:22;;;;;;;3.80;2.10;;;;;;;18.58;60.52;102826.06;10501708;28;20036;-68
2022/07/09 17:35:23;;;;;;;1.58;1.48;;;;;;;18.47;61.72;102834.03;10483329;28;20560;-66
2022/07/09 17:40:24;;;;;;;2.25;2.05;;;;;;;18.51;60.32;102838.91;10484381;28;20086;-68
2022/07/09 17:45:24;;;;;;;8.30;2.22;;;;;;;18.49;63.34;102841.00;10483401;28;20530;-67
2022/07/09 17:50:25;;;;;;;6.63;2.88;;;;;;;18.44;63.51;102834.41;10483383;28;20560;-68
2022/07/09 17:55:27;;;;;;;3.45;2.22;;;;;;;18.44;64.18;102831.69;10500806;28;20041;-68
2022/07/09 18:00:30;;;;;;;2.47;1.77;;;;;;;18.41;62.19;102834.84;10483423;28;20115;-67
2022/07/09 18:05:30;;;;;;;7.57;2.00;;;;;;;18.45;63.93;102834.25;10481583;28;20073;-68
2022/07/09 18:10:31;;;;;;;2.72;1.80;;;;;;;18.35;63.22;102842.00;10499407;28;20048;-68
2022/07/09 18:15:31;;;;;;;2.83;1.65;;;;;;;17.96;63.62;102837.91;10500648;28;20060;-68
2022/07/09 18:20:32;;;;;;;4.80;2.00;;;;;;;17.87;63.07;102829.00;10481752;28;20036;-69
2022/07/09 18:25:32;;;;;;;6.75;1.90;;;;;;;17.77;64.29;102839.47;10500461;28;20060;-68
2022/07/09 18:30:32;;;;;;;1.75;1.65;;;;;;;17.61;64.22;102840.56;10482562;28;20044;-67
2022/07/09 18:35:33;;;;;;;4.28;2.55;;;;;;;17.46;66.25;102841.69;10500323;28;20040;-67
2022/07/09 18:40:33;;;;;;;2.67;1.77;;;;;;;17.32;66.77;102830.59;10498876;28;20438;-67
2022/07/09 18:45:34;;;;;;;1.58;1.48;;;;;;;17.23;67.50;102847.34;10498097;28;20064;-67
2022/07/09 18:50:34;;;;;;;6.97;2.15;;;;;;;17.23;66.76;102836.38;10497905;28;20033;-67
2022/07/09 18:55:35;;;;;;;2.75;2.30;;;;;;;17.29;65.21;102832.88;10499422;28;20496;-67
2022/07/09 19:00:36;;;;;;;10.75;2.13;;;;;;;17.16;66.56;102841.78;10481960;28;20460;-69
2022/07/09 19:05:36;;;;;;;6.18;2.60;;;;;;;17.03;67.37;102844.38;10499296;28;20402;-67
2022/07/09 19:10:36;;;;;;;4.00;1.95;;;;;;;16.87;66.97;102860.00;10480912;28;20064;-68
2022/07/09 19:15:37;;;;;;;3.58;1.77;;;;;;;16.79;66.31;102851.91;10507909;28;20067;-67
2022/07/09 19:20:37;;;;;;;4.80;1.63;;;;;;;16.71;66.16;102858.28;10494772;28;20038;-67
2022/07/09 19:25:37;;;;;;;2.80;1.42;;;;;;;16.69;66.97;102852.16;10493595;28;20052;-67
2022/07/09 19:35:57;;;;;;;4.40;2.60;;;;;;;16.83;66.73;102853.22;10517185;28;20127;-68
2022/07/09 19:40:57;;;;;;;5.20;1.75;;;;;;;16.74;66.72;102866.09;10512141;28;20115;-67
2022/07/09 19:45:58;;;;;;;5.05;2.58;;;;;;;16.68;66.89;102871.50;10493259;28;20126;-67
2022/07/09 19:50:58;;;;;;;6.53;2.15;;;;;;;16.68;66.10;102874.22;10510311;28;20149;-66
2022/07/09 19:55:59;;;;;;;2.25;1.77;;;;;;;16.52;66.98;102883.47;10493369;28;20119;-67
2022/07/09 20:00:59;;;;;;;5.55;1.95;;;;;;;16.47;65.61;102881.31;10510907;28;20491;-67
2022/07/09 20:06:00;;;;;;;4.85;1.90;;;;;;;16.37;67.12;102888.09;10492925;28;20041;-67
2022/07/09 20:11:00;;;;;;;1.67;1.08;;;;;;;16.23;68.64;102893.34;10492466;28;20117;-67
2022/07/09 20:16:01;;;;;;;3.60;2.00;;;;;;;16.11;66.68;102889.38;10492427;28;20032;-67
2022/07/09 20:21:02;;;;;;;7.30;1.85;;;;;;;15.88;68.94;102886.69;10492586;28;20063;-68
2022/07/09 20:26:02;;;;;;;1.52;1.42;;;;;;;15.89;67.98;102893.00;10488646;28;20024;-67
2022/07/09 20:31:02;;;;;;;1.88;1.70;;;;;;;15.80;67.40;102900.44;10485689;28;20029;-67
2022/07/09 20:36:03;;;;;;;2.08;1.58;;;;;;;15.74;67.44;102899.28;10504207;28;20133;-68
2022/07/09 20:41:04;;;;;;;4.07;1.88;;;;;;;15.68;66.70;102894.56;10505008;28;20055;-67
2022/07/09 20:46:04;;;;;;;2.00;1.63;;;;;;;15.67;66.53;102903.78;10502364;28;20056;-69
2022/07/09 20:51:05;;;;;;;1.23;1.05;;;;;;;15.62;67.09;102897.97;10501653;28;20050;-68
2022/07/09 20:56:05;;;;;;;4.35;1.85;;;;;;;15.65;67.41;102903.06;10503430;28;20064;-69
2022/07/09 21:01:07;;;;;;;2.85;1.15;;;;;;;15.53;68.72;102891.72;10484048;28;20485;-69
2022/07/09 21:06:07;;;;;;;2.95;1.00;;;;;;;15.48;67.12;102887.84;10502494;28;20043;-69
2022/07/09 21:11:07;;;;;;;1.95;1.50;;;;;;;15.39;68.31;102881.59;10504042;28;20466;-68
2022/07/09 21:16:08;;;;;;;0.90;0.90;;;;;;;15.30;68.10;102882.66;10483848;28;20047;-68
2022/07/09 21:21:08;;;;;;;9.93;3.25;;;;;;;15.20;68.41;102874.72;10483621;28;20064;-68
2022/07/09 21:26:09;;;;;;;1.33;1.23;;;;;;;15.10;71.07;102882.28;10485036;28;20067;-69
2022/07/09 21:31:10;;;;;;;8.43;2.10;;;;;;;15.11;68.67;102887.56;10501785;28;20032;-68
2022/07/09 21:36:11;;;;;;;4.85;2.60;;;;;;;15.05;68.04;102884.69;10482508;28;20040;-68
2022/07/09 21:41:12;;;;;;;2.10;1.40;;;;;;;14.98;67.91;102889.16;10484184;28;20122;-68
2022/07/09 21:46:13;;;;;;;2.13;1.83;;;;;;;14.94;68.34;102880.50;10500592;28;20040;-67
2022/07/09 21:51:13;;;;;;;4.28;1.90;;;;;;;14.85;68.92;102879.69;10466112;28;20376;-69
2022/07/09 21:56:14;;;;;;;2.13;1.77;;;;;;;14.79;68.53;102871.34;10501227;28;20063;-68
2022/07/09 22:01:14;;;;;;;3.97;2.08;;;;;;;14.77;68.36;102881.56;10468650;28;20094;-67
2022/07/09 22:06:15;;;;;;;9.68;1.67;;;;;;;14.69;68.22;102876.19;10468740;28;20072;-66
2022/07/09 22:11:15;;;;;;;3.53;1.67;;;;;;;14.65;68.10;102871.06;10500095;28;20395;-67
2022/07/09 22:16:16;;;;;;;5.90;1.45;;;;;;;14.63;67.86;102864.94;10501365;28;20384;-67
2022/07/09 22:21:16;;;;;;;3.38;1.65;;;;;;;14.58;68.33;102870.09;10500143;28;20044;-67
2022/07/09 22:26:16;;;;;;;1.50;1.40;;;;;;;14.54;68.73;102867.88;10504294;28;20094;-67
2022/07/09 22:31:17;;;;;;;7.40;2.15;;;;;;;14.60;70.14;102862.56;10504753;28;20474;-67
2022/07/09 22:36:17;;;;;;;2.88;1.83;;;;;;;14.55;69.18;102867.72;10486140;28;20403;-67
2022/07/09 22:41:18;;;;;;;6.03;2.08;;;;;;;14.45;68.98;102853.38;10484333;28;20060;-67
2022/07/09 22:46:18;;;;;;;6.70;1.75;;;;;;;14.41;69.65;102852.03;10499238;28;20040;-67
2022/07/09 22:51:18;;;;;;;2.33;1.65;;;;;;;14.37;69.16;102853.41;10498144;28;20459;-68
2022/07/09 22:56:19;;;;;;;4.45;2.53;;;;;;;14.33;69.36;102857.53;10498447;28;20032;-68
2022/07/09 23:01:19;;;;;;;8.32;2.17;;;;;;;14.32;68.77;102859.38;10480949;28;20114;-67